createdAt,value
2018-01-27T00:01:33.260Z,95.20
2018-01-27T00:04:22.864Z,95.20
2018-01-27T00:06:51.172Z,95.40
2018-01-27T00:09:18.611Z,95.40
2018-01-27T00:11:52.947Z,95.40
2018-01-27T00:14:20.393Z,95.40
2018-01-27T00:16:47.836Z,95.40
2018-01-27T00:19:16.063Z,95.40
2018-01-27T00:21:43.536Z,95.40
2018-01-27T00:24:10.979Z,95.50
2018-01-27T00:26:38.516Z,95.50
2018-01-27T00:29:06.944Z,95.40
2018-01-27T00:31:34.392Z,95.40
2018-01-27T00:34:02.806Z,95.40
2018-01-27T00:36:31.004Z,95.50
2018-01-27T00:38:58.459Z,95.50
2018-01-27T00:41:25.919Z,95.50
2018-01-27T00:43:54.347Z,95.40
2018-01-27T00:46:21.953Z,95.50
2018-01-27T00:48:49.420Z,95.50
2018-01-27T00:51:16.885Z,95.50
2018-01-27T00:53:44.332Z,95.50
2018-01-27T00:56:11.825Z,95.50
2018-01-27T00:58:42.274Z,95.50
2018-01-27T01:01:09.699Z,95.50
2018-01-27T01:03:37.347Z,95.50
2018-01-27T01:06:05.133Z,95.50
2018-01-27T01:08:32.571Z,95.50
2018-01-27T01:11:00.008Z,95.60
2018-01-27T01:13:27.588Z,95.50
2018-01-27T01:15:55.029Z,95.50
2018-01-27T01:18:22.472Z,95.50
2018-01-27T01:20:50.779Z,95.50
2018-01-27T01:23:18.217Z,95.50
2018-01-27T01:25:45.685Z,95.50
2018-01-27T01:28:13.120Z,95.60
2018-01-27T01:30:41.327Z,95.60
2018-01-27T01:33:08.793Z,95.60
2018-01-27T01:35:36.238Z,95.60
2018-01-27T01:38:03.773Z,95.50
2018-01-27T01:40:31.970Z,95.60
2018-01-27T01:43:05.300Z,95.60
2018-01-27T01:45:32.891Z,95.80
2018-01-27T01:48:01.175Z,95.80
2018-01-27T01:50:29.386Z,95.80
2018-01-27T01:52:56.829Z,95.70
2018-01-27T01:55:24.670Z,95.80
2018-01-27T01:57:52.871Z,95.80
2018-01-27T02:00:20.672Z,95.70
2018-01-27T02:02:48.116Z,95.70
2018-01-27T02:05:15.558Z,95.80
2018-01-27T02:07:43.021Z,95.80
2018-01-27T02:10:11.436Z,95.80
2018-01-27T02:12:38.945Z,95.80
2018-01-27T02:15:06.412Z,95.70
2018-01-27T02:17:33.840Z,95.80
2018-01-27T02:20:02.064Z,95.80
2018-01-27T02:22:29.528Z,95.80
2018-01-27T02:24:56.967Z,95.80
2018-01-27T02:27:24.423Z,95.70
2018-01-27T02:29:51.869Z,95.70
2018-01-27T02:32:19.393Z,95.80
2018-01-27T02:34:46.837Z,95.70
2018-01-27T02:37:14.313Z,95.80
2018-01-27T02:39:42.523Z,95.80
2018-01-27T02:42:09.957Z,95.80
2018-01-27T02:44:38.290Z,95.80
2018-01-27T02:47:05.767Z,95.80
2018-01-27T02:49:33.508Z,95.80
2018-01-27T02:52:00.944Z,95.80
2018-01-27T02:54:32.331Z,95.80
2018-01-27T02:56:59.796Z,95.80
2018-01-27T02:59:27.255Z,95.80
2018-01-27T03:01:54.696Z,95.80
2018-01-27T03:04:22.175Z,95.80
2018-01-27T03:06:49.621Z,95.90
2018-01-27T03:09:17.064Z,95.90
2018-01-27T03:11:44.651Z,95.90
2018-01-27T03:14:12.127Z,95.90
2018-01-27T03:16:40.328Z,95.80
2018-01-27T03:19:07.764Z,95.80
2018-01-27T03:21:35.576Z,95.80
2018-01-27T03:24:03.045Z,95.90
2018-01-27T03:26:30.487Z,95.90
2018-01-27T03:28:58.138Z,95.90
2018-01-27T03:31:25.589Z,95.90
2018-01-27T03:33:53.020Z,95.90
2018-01-27T03:36:21.652Z,95.90
2018-01-27T03:38:49.106Z,95.90
2018-01-27T03:41:16.534Z,96.00
2018-01-27T03:43:44.056Z,96.00
2018-01-27T03:46:11.488Z,96.00
2018-01-27T03:48:38.936Z,96.00
2018-01-27T03:51:06.907Z,96.00
2018-01-27T03:53:34.343Z,96.10
2018-01-27T03:56:01.786Z,96.00
2018-01-27T03:58:29.253Z,96.10
2018-01-27T04:00:56.709Z,96.10
2018-01-27T04:03:24.145Z,96.10
2018-01-27T04:05:52.672Z,96.10
2018-01-27T04:08:20.107Z,96.10
2018-01-27T04:10:48.527Z,96.10
2018-01-27T04:13:16.203Z,96.20
2018-01-27T04:15:43.633Z,96.20
2018-01-27T04:18:11.088Z,96.20
2018-01-27T04:20:38.860Z,96.20
2018-01-27T04:23:06.292Z,96.20
2018-01-27T04:25:33.731Z,96.20
2018-01-27T04:28:01.195Z,96.20
2018-01-27T04:30:28.651Z,96.20
2018-01-27T04:32:56.143Z,96.20
2018-01-27T04:35:23.581Z,96.20
2018-01-27T04:37:51.096Z,96.20
2018-01-27T04:40:19.309Z,96.30
2018-01-27T04:42:48.145Z,96.30
2018-01-27T04:45:15.580Z,96.30
2018-01-27T04:47:43.030Z,96.30
2018-01-27T04:50:10.621Z,96.30
2018-01-27T04:52:38.056Z,96.30
2018-01-27T04:55:05.512Z,96.70
2018-01-27T04:57:32.948Z,96.40
2018-01-27T05:00:00.737Z,96.30
2018-01-27T05:02:28.171Z,96.30
2018-01-27T05:04:55.617Z,96.30
2018-01-27T05:07:23.149Z,96.30
2018-01-27T05:09:51.356Z,96.40
2018-01-27T05:12:41.694Z,96.40
2018-01-27T05:15:09.131Z,96.40
2018-01-27T05:17:36.574Z,96.40
2018-01-27T05:20:04.040Z,96.40
2018-01-27T05:22:31.484Z,96.40
2018-01-27T05:24:59.039Z,96.40
2018-01-27T05:27:26.468Z,96.40
2018-01-27T05:29:54.704Z,96.40
2018-01-27T05:32:22.143Z,96.40
2018-01-27T05:34:49.611Z,96.40
2018-01-27T05:37:17.052Z,96.40
2018-01-27T05:39:44.556Z,96.50
2018-01-27T05:42:14.052Z,96.50
2018-01-27T05:44:41.796Z,96.50
2018-01-27T05:47:09.229Z,96.50
2018-01-27T05:49:36.664Z,96.50
2018-01-27T05:52:04.891Z,96.50
2018-01-27T05:54:38.123Z,96.50
2018-01-27T05:57:06.336Z,96.60
2018-01-27T05:59:33.799Z,96.60
2018-01-27T06:02:01.250Z,96.60
2018-01-27T06:04:28.895Z,96.60
2018-01-27T06:06:56.336Z,96.60
2018-01-27T06:09:24.563Z,96.60
2018-01-27T06:11:52.012Z,96.60
2018-01-27T06:14:19.479Z,96.60
2018-01-27T06:16:46.928Z,96.70
2018-01-27T06:19:14.381Z,96.70
2018-01-27T06:21:44.309Z,96.70
2018-01-27T06:24:11.748Z,96.70
2018-01-27T06:26:39.192Z,96.70
2018-01-27T06:29:06.652Z,96.70
2018-01-27T06:31:34.089Z,96.70
2018-01-27T06:34:02.591Z,96.80
2018-01-27T06:36:30.032Z,96.80
2018-01-27T06:38:59.200Z,96.80
2018-01-27T06:41:26.760Z,96.80
2018-01-27T06:43:54.341Z,96.80
2018-01-27T06:46:22.571Z,96.90
2018-01-27T06:49:09.493Z,96.90
2018-01-27T06:51:36.936Z,96.90
2018-01-27T06:54:04.374Z,96.90
2018-01-27T06:56:33.608Z,96.90
2018-01-27T06:59:01.052Z,96.90
2018-01-27T07:01:28.497Z,96.90
2018-01-27T07:03:57.964Z,96.90
2018-01-27T07:06:26.173Z,97.00
2018-01-27T07:08:53.636Z,96.90
2018-01-27T07:11:21.095Z,96.90
2018-01-27T07:13:48.731Z,97.00
2018-01-27T07:16:21.968Z,97.00
2018-01-27T07:18:49.430Z,97.10
2018-01-27T07:21:16.868Z,97.10
2018-01-27T07:23:44.328Z,97.00
2018-01-27T07:26:11.759Z,97.10
2018-01-27T07:28:39.197Z,97.10
2018-01-27T07:31:07.472Z,97.00
2018-01-27T07:33:35.700Z,97.00
2018-01-27T07:36:03.140Z,96.90
2018-01-27T07:38:32.556Z,96.90
2018-01-27T07:41:00.041Z,97.00
2018-01-27T07:43:27.476Z,97.00
2018-01-27T07:45:55.016Z,97.00
2018-01-27T07:48:24.663Z,97.00
2018-01-27T07:50:52.101Z,97.00
2018-01-27T07:53:19.536Z,97.00
2018-01-27T07:55:47.279Z,97.10
2018-01-27T07:58:15.484Z,97.10
2018-01-27T08:00:42.925Z,97.10
2018-01-27T08:03:10.391Z,97.00
2018-01-27T08:05:37.821Z,96.90
2018-01-27T08:08:06.351Z,97.00
2018-01-27T08:10:33.792Z,97.00
2018-01-27T08:13:01.227Z,97.10
2018-01-27T08:15:29.029Z,97.10
2018-01-27T08:17:56.456Z,97.10
2018-01-27T08:20:23.892Z,97.10
2018-01-27T08:22:52.124Z,97.10
2018-01-27T08:25:20.083Z,97.10
2018-01-27T08:27:47.512Z,97.10
2018-01-27T08:30:14.956Z,97.10
2018-01-27T08:32:43.192Z,97.40
2018-01-27T08:35:10.636Z,97.10
2018-01-27T08:37:38.080Z,97.10
2018-01-27T08:40:05.707Z,97.10
2018-01-27T08:42:33.929Z,97.20
2018-01-27T08:45:01.368Z,97.20
2018-01-27T08:47:28.880Z,97.20
2018-01-27T08:49:56.316Z,97.30
2018-01-27T08:52:23.784Z,97.20
2018-01-27T08:54:51.224Z,97.30
2018-01-27T08:57:18.660Z,97.30
2018-01-27T08:59:46.170Z,97.30
2018-01-27T09:02:13.608Z,97.40
2018-01-27T09:04:44.883Z,97.40
2018-01-27T09:07:13.084Z,97.50
2018-01-27T09:09:40.545Z,97.40
2018-01-27T09:12:07.989Z,97.50
2018-01-27T09:14:35.604Z,97.50
2018-01-27T09:17:03.047Z,97.50
2018-01-27T09:19:30.499Z,97.50
2018-01-27T09:21:58.096Z,97.50
2018-01-27T09:24:25.559Z,97.50
2018-01-27T09:26:53.781Z,97.60
2018-01-27T09:29:22.906Z,97.60
2018-01-27T09:31:50.336Z,97.50
2018-01-27T09:34:18.555Z,97.60
2018-01-27T09:36:45.995Z,97.50
2018-01-27T09:39:14.912Z,97.30
2018-01-27T09:41:43.120Z,97.50
2018-01-27T09:44:14.370Z,97.50
2018-01-27T09:46:41.800Z,97.60
2018-01-27T09:49:10.033Z,97.80
2018-01-27T09:51:37.464Z,97.50
2018-01-27T09:54:05.253Z,97.50
2018-01-27T09:56:32.688Z,97.50
2018-01-27T09:59:00.132Z,97.50
2018-01-27T10:01:28.624Z,97.50
2018-01-27T10:03:56.051Z,97.50
2018-01-27T10:06:24.275Z,97.50
2018-01-27T10:08:51.740Z,97.50
2018-01-27T10:11:19.176Z,97.40
2018-01-27T10:13:46.641Z,97.20
2018-01-27T10:16:14.082Z,97.20
2018-01-27T10:18:41.668Z,97.10
2018-01-27T10:21:09.104Z,97.10
2018-01-27T10:23:37.543Z,97.10
2018-01-27T10:26:05.760Z,96.90
2018-01-27T10:28:33.239Z,96.90
2018-01-27T10:31:00.676Z,96.90
2018-01-27T10:33:28.103Z,96.80
2018-01-27T10:35:56.514Z,96.70
2018-01-27T10:38:23.949Z,96.70
2018-01-27T10:40:51.381Z,96.60
2018-01-27T10:43:18.924Z,96.60
2018-01-27T10:45:46.386Z,96.60
2018-01-27T10:48:13.823Z,96.90
2018-01-27T10:50:44.148Z,96.60
2018-01-27T10:53:11.592Z,96.60
2018-01-27T10:55:39.028Z,96.60
2018-01-27T10:58:06.488Z,96.50
2018-01-27T11:00:50.120Z,96.40
2018-01-27T11:03:17.556Z,96.30
2018-01-27T11:05:45.810Z,96.10
2018-01-27T11:08:13.351Z,96.10
2018-01-27T11:10:42.032Z,96.10
2018-01-27T11:13:09.522Z,96.00
2018-01-27T11:15:36.955Z,96.00
2018-01-27T11:18:04.417Z,96.00
2018-01-27T11:20:31.893Z,95.90
2018-01-27T11:22:59.324Z,95.80
2018-01-27T11:25:26.881Z,95.80
2018-01-27T11:27:54.316Z,95.60
2018-01-27T11:30:21.749Z,95.50
2018-01-27T11:32:49.981Z,95.60
2018-01-27T11:35:17.443Z,95.50
2018-01-27T11:37:44.877Z,95.40
2018-01-27T11:40:12.360Z,95.30
2018-01-27T11:42:39.808Z,95.20
2018-01-27T11:45:07.664Z,95.50
2018-01-27T11:47:35.091Z,95.20
2018-01-27T11:50:02.524Z,95.10
2018-01-27T11:52:30.880Z,94.80
2018-01-27T11:54:58.372Z,94.80
2018-01-27T11:57:25.776Z,94.60
2018-01-27T11:59:53.212Z,94.50
2018-01-27T12:02:20.980Z,94.30
2018-01-27T12:04:48.411Z,94.30
2018-01-27T12:07:15.848Z,94.30
2018-01-27T12:09:44.387Z,94.00
2018-01-27T12:12:11.852Z,94.00
2018-01-27T12:14:39.316Z,93.70
2018-01-27T12:17:06.752Z,93.40
2018-01-27T12:19:34.222Z,93.30
2018-01-27T12:22:01.664Z,93.30
2018-01-27T12:24:29.122Z,93.20
2018-01-27T12:26:56.560Z,93.10
2018-01-27T12:29:24.255Z,93.10
2018-01-27T12:31:51.697Z,93.10
2018-01-27T12:34:19.140Z,93.10
2018-01-27T12:36:46.596Z,93.00
2018-01-27T12:39:14.033Z,92.90
2018-01-27T12:41:42.291Z,92.80
2018-01-27T12:44:24.829Z,92.80
2018-01-27T12:46:53.461Z,92.70
2018-01-27T12:49:20.895Z,92.70
2018-01-27T12:51:48.525Z,92.70
2018-01-27T12:54:16.732Z,92.50
2018-01-27T12:56:44.163Z,92.40
2018-01-27T12:59:12.403Z,92.20
2018-01-27T13:01:39.831Z,92.20
2018-01-27T13:04:07.277Z,92.20
2018-01-27T13:06:34.845Z,92.00
2018-01-27T13:09:02.272Z,91.90
2018-01-27T13:11:30.718Z,91.70
2018-01-27T13:13:58.165Z,91.70
2018-01-27T13:16:25.612Z,91.70
2018-01-27T13:18:53.072Z,91.70
2018-01-27T13:21:20.512Z,91.80
2018-01-27T13:23:48.807Z,91.80
2018-01-27T13:26:16.272Z,91.80
2018-01-27T13:28:43.740Z,91.70
2018-01-27T13:31:11.593Z,91.60
2018-01-27T13:33:39.020Z,91.60
2018-01-27T13:36:06.447Z,91.50
2018-01-27T13:38:34.780Z,91.20
2018-01-27T13:41:02.264Z,91.20
2018-01-27T13:43:31.952Z,91.20
2018-01-27T13:45:59.389Z,90.90
2018-01-27T13:48:26.847Z,91.00
2018-01-27T13:50:54.324Z,90.80
2018-01-27T13:53:21.764Z,90.70
2018-01-27T13:55:49.272Z,90.70
2018-01-27T13:58:17.487Z,90.40
2018-01-27T14:00:44.928Z,90.40
2018-01-27T14:03:13.380Z,90.30
2018-01-27T14:05:41.596Z,90.30
2018-01-27T14:08:09.056Z,90.30
2018-01-27T14:10:36.494Z,90.30
2018-01-27T14:13:04.688Z,90.50
2018-01-27T14:15:32.207Z,90.50
2018-01-27T14:18:00.411Z,90.40
2018-01-27T14:20:28.208Z,90.40
2018-01-27T14:22:55.660Z,90.30
2018-01-27T14:25:23.092Z,90.10
2018-01-27T14:27:50.565Z,90.00
2018-01-27T14:30:18.003Z,90.00
2018-01-27T14:32:50.616Z,89.80
2018-01-27T14:35:18.065Z,89.90
2018-01-27T14:37:46.267Z,90.40
2018-01-27T14:40:14.133Z,90.00
2018-01-27T14:42:41.556Z,90.10
2018-01-27T14:45:09.031Z,90.50
2018-01-27T14:47:36.688Z,90.10
2018-01-27T14:50:04.117Z,90.40
2018-01-27T14:52:31.548Z,90.10
2018-01-27T14:55:00.817Z,90.20
2018-01-27T14:57:28.255Z,90.20
2018-01-27T14:59:55.707Z,90.10
2018-01-27T15:02:23.142Z,90.10
2018-01-27T15:04:55.662Z,90.10
2018-01-27T15:07:23.100Z,90.20
2018-01-27T15:09:51.695Z,90.30
2018-01-27T15:12:19.232Z,90.30
2018-01-27T15:14:46.663Z,90.20
2018-01-27T15:17:14.123Z,90.30
2018-01-27T15:19:41.565Z,90.30
2018-01-27T15:22:09.888Z,90.40
2018-01-27T15:24:37.328Z,90.40
2018-01-27T15:27:04.755Z,90.50
2018-01-27T15:29:32.980Z,90.60
2018-01-27T15:32:00.407Z,90.50
2018-01-27T15:34:27.852Z,90.60
2018-01-27T15:36:56.092Z,90.70
2018-01-27T15:39:23.945Z,90.90
2018-01-27T15:41:51.377Z,90.70
2018-01-27T15:44:18.807Z,90.70
2018-01-27T15:46:47.093Z,90.90
2018-01-27T15:49:15.321Z,91.00
2018-01-27T15:51:42.773Z,91.00
2018-01-27T15:54:10.228Z,90.90
2018-01-27T15:56:40.684Z,90.90
2018-01-27T15:59:08.285Z,90.90
2018-01-27T16:01:35.721Z,91.00
2018-01-27T16:04:03.998Z,91.10
2018-01-27T16:06:32.526Z,91.20
2018-01-27T16:08:59.968Z,91.20
2018-01-27T16:11:27.449Z,91.20
2018-01-27T16:13:55.037Z,91.20
2018-01-27T16:16:22.469Z,91.30
2018-01-27T16:18:50.190Z,91.30
2018-01-27T16:21:18.636Z,91.40
2018-01-27T16:23:46.118Z,91.40
2018-01-27T16:26:14.342Z,91.60
2018-01-27T16:28:41.813Z,91.50
2018-01-27T16:31:09.247Z,91.60
2018-01-27T16:33:36.735Z,91.60
2018-01-27T16:36:04.179Z,91.60
2018-01-27T16:38:31.620Z,91.70
2018-01-27T16:41:04.414Z,91.70
2018-01-27T16:43:41.791Z,91.70
2018-01-27T16:46:09.256Z,92.10
2018-01-27T16:48:36.688Z,91.80
2018-01-27T16:51:04.379Z,91.80
2018-01-27T16:53:31.823Z,91.80
2018-01-27T16:55:59.258Z,91.90
2018-01-27T16:58:26.761Z,91.90
2018-01-27T17:00:56.388Z,92.00
2018-01-27T17:03:23.820Z,92.00
2018-01-27T17:05:51.552Z,92.00
2018-01-27T17:08:18.988Z,92.00
2018-01-27T17:10:47.197Z,92.10
2018-01-27T17:13:14.651Z,92.10
2018-01-27T17:15:42.865Z,92.20
2018-01-27T17:18:10.458Z,92.10
2018-01-27T17:20:39.907Z,92.20
2018-01-27T17:23:07.351Z,92.20
2018-01-27T17:25:34.868Z,92.20
2018-01-27T17:28:02.296Z,92.30
2018-01-27T17:30:29.739Z,92.30
2018-01-27T17:32:58.427Z,92.40
2018-01-27T17:35:26.296Z,92.40
2018-01-27T17:37:53.734Z,92.50
2018-01-27T17:40:21.180Z,92.40
2018-01-27T17:42:49.643Z,92.40
2018-01-27T17:45:17.873Z,92.40
2018-01-27T17:47:45.307Z,92.40
2018-01-27T17:50:12.958Z,92.40
2018-01-27T17:52:40.397Z,92.50
2018-01-27T17:55:07.869Z,92.50
2018-01-27T17:57:35.395Z,92.50
2018-01-27T18:00:03.005Z,92.50
2018-01-27T18:02:34.632Z,92.50
2018-01-27T18:05:02.846Z,92.60
2018-01-27T18:07:31.169Z,92.60
2018-01-27T18:09:59.554Z,92.60
2018-01-27T18:12:28.100Z,92.70
2018-01-27T18:14:55.564Z,92.70
2018-01-27T18:17:23.008Z,92.70
2018-01-27T18:19:50.468Z,92.70
2018-01-27T18:22:17.900Z,92.70
2018-01-27T18:24:46.818Z,92.70
2018-01-27T18:27:14.278Z,92.70
2018-01-27T18:29:41.748Z,92.70
2018-01-27T18:32:10.266Z,92.70
2018-01-27T18:34:37.761Z,92.80
2018-01-27T18:37:19.622Z,92.70
2018-01-27T18:40:07.507Z,92.80
2018-01-27T19:10:09.432Z,92.60
2018-01-27T19:12:37.649Z,92.60
2018-01-27T19:15:05.308Z,92.60
2018-01-27T19:17:32.767Z,92.60
2018-01-27T19:20:03.238Z,92.60
2018-01-27T19:22:30.672Z,92.60
2018-01-27T19:24:59.312Z,92.50
2018-01-27T19:27:26.762Z,92.50
2018-01-27T19:29:54.202Z,92.50
2018-01-27T19:32:21.700Z,92.50
2018-01-27T19:34:49.139Z,92.50
2018-01-27T19:37:16.604Z,92.50
2018-01-27T19:39:44.072Z,92.60
2018-01-27T19:42:11.533Z,92.60
2018-01-27T19:44:39.035Z,92.50
2018-01-27T19:47:07.356Z,92.60
2018-01-27T19:49:34.788Z,92.50
2018-01-27T19:52:02.227Z,92.50
2018-01-27T19:54:29.993Z,92.50
2018-01-27T19:56:57.440Z,92.50
2018-01-27T19:59:25.656Z,92.50
2018-01-27T20:02:02.111Z,92.50
2018-01-27T20:04:29.777Z,92.50
2018-01-27T20:06:57.324Z,92.50
2018-01-27T20:09:24.831Z,92.50
2018-01-27T20:11:52.224Z,92.50
2018-01-27T20:14:19.680Z,92.50
2018-01-27T20:16:47.882Z,92.50
2018-01-27T20:19:15.664Z,92.50
2018-01-27T20:21:43.243Z,92.50
2018-01-27T20:24:10.697Z,92.50
2018-01-27T20:26:38.249Z,92.50
2018-01-27T20:29:05.680Z,92.50
2018-01-27T20:31:33.294Z,92.50
2018-01-27T20:34:00.838Z,92.40
2018-01-27T20:36:28.350Z,92.40
2018-01-27T20:38:55.851Z,92.40
2018-01-27T20:41:23.346Z,92.40
2018-01-27T20:43:50.894Z,92.40
2018-01-27T20:46:18.362Z,92.40
2018-01-27T20:48:46.086Z,92.80
2018-01-27T20:51:13.577Z,92.50
2018-01-27T20:53:41.825Z,92.50
2018-01-27T20:56:09.569Z,92.40
2018-01-27T20:58:37.005Z,92.40
2018-01-27T21:01:04.439Z,92.40
2018-01-27T21:03:32.780Z,92.50
2018-01-27T21:06:00.212Z,92.50
2018-01-27T21:08:47.528Z,92.50
2018-01-27T21:11:15.723Z,92.50
2018-01-27T21:13:43.180Z,92.50
2018-01-27T21:16:10.628Z,92.50
2018-01-27T21:18:38.218Z,92.50
2018-01-27T21:21:05.656Z,92.50
2018-01-27T21:23:33.107Z,92.50
2018-01-27T21:26:00.550Z,92.50
2018-01-27T21:28:30.995Z,92.50
2018-01-27T21:30:58.448Z,92.40
2018-01-27T21:33:25.912Z,92.40
2018-01-27T21:35:53.508Z,92.40
2018-01-27T21:38:21.272Z,92.40
2018-01-27T21:40:48.713Z,92.40
2018-01-27T21:43:21.391Z,92.30
2018-01-27T21:45:48.894Z,92.40
2018-01-27T21:48:17.092Z,92.30
2018-01-27T21:50:44.581Z,92.30
2018-01-27T21:53:12.454Z,92.30
2018-01-27T21:55:39.935Z,92.40
2018-01-27T21:58:07.381Z,92.40
2018-01-27T22:00:41.580Z,92.40
2018-01-27T22:03:09.013Z,92.40
2018-01-27T22:06:00.268Z,92.40
2018-01-27T22:08:27.805Z,92.40
2018-01-27T22:10:55.273Z,92.40
2018-01-27T22:13:22.798Z,92.40
2018-01-27T22:15:50.286Z,92.40
2018-01-27T22:18:17.760Z,92.40
2018-01-27T22:21:07.918Z,92.40
2018-01-27T22:23:35.440Z,92.40
2018-01-27T22:26:02.868Z,92.50
2018-01-27T22:28:30.323Z,92.50
2018-01-27T22:30:57.775Z,92.50
2018-01-27T22:33:25.229Z,92.40
2018-01-27T22:35:52.668Z,92.40
2018-01-27T22:38:20.125Z,92.40
2018-01-27T22:40:47.760Z,92.40
2018-01-27T22:43:37.809Z,92.40
2018-01-27T22:46:05.797Z,92.40
2018-01-27T22:48:33.960Z,92.40
2018-01-27T22:51:02.292Z,92.40
2018-01-27T22:53:29.747Z,92.40
2018-01-27T22:55:57.176Z,92.40
2018-01-27T22:58:27.226Z,92.40
2018-01-27T23:04:02.132Z,92.30
2018-01-27T23:06:30.524Z,92.30
2018-01-27T23:08:57.956Z,92.30
2018-01-27T23:11:26.161Z,92.40
2018-01-27T23:13:53.732Z,92.30
2018-01-27T23:16:21.163Z,92.40
2018-01-27T23:18:48.623Z,92.50
2018-01-27T23:21:16.060Z,92.50
2018-01-27T23:23:44.283Z,92.40
2018-01-27T23:26:11.729Z,92.60
2018-01-27T23:28:39.196Z,92.70
2018-01-27T23:31:07.635Z,92.80
2018-01-27T23:33:35.835Z,92.90
2018-01-27T23:36:03.424Z,92.90
2018-01-27T23:38:30.923Z,92.90
2018-01-27T23:40:58.384Z,92.90
2018-01-27T23:43:26.619Z,93.00
2018-01-27T23:45:54.252Z,93.00
2018-01-27T23:48:21.688Z,93.00
2018-01-27T23:50:49.894Z,93.10
2018-01-27T23:53:17.424Z,93.10
2018-01-27T23:55:45.639Z,93.30
2018-01-27T23:58:13.099Z,93.30
